Time;durP1;ratioP1;P1;durP2;ratioP2;P2;SDS_P1;SDS_P2;PMS_P1;PMS_P2;Temp;Humidity;BMP_temperature;BMP_pressure;BME280_temperature;BME280_humidity;BME280_pressure;Samples;Min_cycle;Max_cycle;Signal;HPM_P1;HPM_P2
2021/11/11 00:00:29;;;;;;;13.30;9.30;;;;;;;5.44;73.53;99617.25;215440;1316;22571;-76
2021/11/11 00:05:33;;;;;;;13.40;9.60;;;;;;;5.43;73.91;99617.27;215534;1317;24292;-76
2021/11/11 00:10:36;;;;;;;13.80;9.60;;;;;;;5.42;73.61;99611.31;215688;1319;25539;-77
2021/11/11 00:15:39;;;;;;;14.80;9.70;;;;;;;5.42;74.01;99614.34;215554;1316;24253;-77
2021/11/11 00:20:43;;;;;;;12.00;9.40;;;;;;;5.41;74.00;99613.20;215545;1318;24256;-77
2021/11/11 00:25:45;;;;;;;13.00;9.10;;;;;;;5.39;73.84;99617.86;215450;1314;22593;-76
2021/11/11 00:30:48;;;;;;;13.30;9.60;;;;;;;5.34;74.12;99610.65;215602;1316;22644;-76
2021/11/11 00:35:51;;;;;;;15.00;10.40;;;;;;;5.32;74.57;99605.94;215691;1319;22623;-76
2021/11/11 00:40:54;;;;;;;14.80;9.60;;;;;;;5.35;74.83;99603.73;215202;1318;24301;-76
2021/11/11 00:45:57;;;;;;;15.50;10.60;;;;;;;5.34;74.44;99606.35;215355;1318;22629;-76
2021/11/11 00:51:01;;;;;;;13.60;10.40;;;;;;;5.31;74.74;99610.77;215197;1319;25401;-75
2021/11/11 00:56:03;;;;;;;13.00;9.10;;;;;;;5.32;74.61;99610.52;215905;1317;24327;-76
2021/11/11 01:01:10;;;;;;;14.00;9.70;;;;;;;5.31;74.98;99605.34;215418;1318;24493;-76
2021/11/11 01:06:15;;;;;;;13.20;9.70;;;;;;;5.29;74.99;99607.74;215307;1316;24267;-76
2021/11/11 01:11:18;;;;;;;15.40;10.70;;;;;;;5.28;74.96;99599.69;215620;1317;26474;-76
2021/11/11 01:16:21;;;;;;;13.60;10.20;;;;;;;5.28;74.91;99594.86;215720;1319;22577;-76
2021/11/11 01:21:24;;;;;;;14.20;9.70;;;;;;;5.29;75.02;99591.27;215306;1312;22615;-77
2021/11/11 01:26:27;;;;;;;13.60;10.40;;;;;;;5.30;75.24;99585.62;215365;1316;22693;-76
2021/11/11 01:31:29;;;;;;;14.50;10.00;;;;;;;5.33;75.38;99579.23;215595;1317;25380;-76
2021/11/11 01:36:33;;;;;;;14.40;10.10;;;;;;;5.37;75.29;99578.19;215709;1317;24271;-76
2021/11/11 01:41:37;;;;;;;14.10;10.00;;;;;;;5.39;75.22;99573.93;215699;1317;24353;-77
2021/11/11 01:46:39;;;;;;;11.90;9.60;;;;;;;5.40;75.34;99577.05;215618;1317;22579;-76
2021/11/11 01:51:46;;;;;;;12.20;9.20;;;;;;;5.41;75.35;99567.06;215701;1317;24260;-77
2021/11/11 01:56:59;;;;;;;14.90;10.40;;;;;;;5.38;75.59;99571.20;216151;1316;24285;-76
2021/11/11 02:02:25;;;;;;;14.80;9.80;;;;;;;5.36;75.57;99566.02;215449;1316;25399;-76
2021/11/11 02:07:29;;;;;;;13.80;9.90;;;;;;;5.33;75.61;99564.53;215931;1317;23830;-76
2021/11/11 02:12:32;;;;;;;12.50;9.70;;;;;;;5.34;75.61;99564.64;215849;1316;24317;-76
2021/11/11 02:17:41;;;;;;;13.10;9.90;;;;;;;5.32;75.36;99563.96;215728;1317;24800;-76
2021/11/11 02:22:53;;;;;;;12.80;9.70;;;;;;;5.31;75.57;99563.77;216022;1309;24285;-76
2021/11/11 02:28:22;;;;;;;12.60;9.40;;;;;;;5.26;75.42;99555.45;215343;1319;24276;-77
2021/11/11 02:33:27;;;;;;;11.50;9.00;;;;;;;5.20;75.51;99544.70;215305;1319;22721;-76
2021/11/11 02:38:30;;;;;;;11.50;9.20;;;;;;;5.15;75.46;99533.55;215218;1314;25064;-76
2021/11/11 02:43:32;;;;;;;12.60;9.20;;;;;;;5.11;75.63;99539.25;215626;1318;24247;-76
2021/11/11 02:48:41;;;;;;;10.90;8.50;;;;;;;5.09;75.88;99535.18;215603;1313;25516;-75
2021/11/11 02:53:44;;;;;;;13.30;9.60;;;;;;;5.05;75.75;99536.04;215672;1318;24221;-76
2021/11/11 02:58:47;;;;;;;15.20;9.30;;;;;;;4.98;75.77;99527.61;215462;1318;24441;-76
2021/11/11 03:03:50;;;;;;;13.90;10.30;;;;;;;4.90;75.94;99518.14;215622;1310;24256;-76
2021/11/11 03:08:53;;;;;;;13.70;10.10;;;;;;;4.80;75.70;99515.27;215559;1318;24254;-76
2021/11/11 03:13:57;;;;;;;14.20;9.80;;;;;;;4.73;75.88;99512.27;215658;1310;24270;-76
2021/11/11 03:19:01;;;;;;;18.20;12.80;;;;;;;4.64;75.91;99512.95;215115;1317;24253;-76
2021/11/11 03:24:04;;;;;;;19.00;13.00;;;;;;;4.59;76.36;99515.82;215759;1310;24260;-75
2021/11/11 03:29:07;;;;;;;18.50;12.40;;;;;;;4.56;76.56;99517.29;215179;1319;24291;-75
2021/11/11 03:34:15;;;;;;;20.90;14.60;;;;;;;4.52;76.44;99520.02;215682;1314;22597;-76
2021/11/11 03:39:31;;;;;;;23.90;14.50;;;;;;;4.47;76.79;99521.27;215415;1310;24451;-75
2021/11/11 03:44:35;;;;;;;20.60;13.30;;;;;;;4.45;76.92;99521.19;215917;1314;24286;-75
2021/11/11 03:49:38;;;;;;;20.70;13.40;;;;;;;4.44;77.08;99527.69;215768;1312;24266;-75
2021/11/11 03:54:42;;;;;;;20.70;14.40;;;;;;;4.41;77.01;99529.05;216101;1314;22599;-76
2021/11/11 03:59:48;;;;;;;19.20;13.20;;;;;;;4.32;76.91;99524.91;215707;1317;22857;-76
2021/11/11 04:04:53;;;;;;;20.80;13.00;;;;;;;4.18;76.67;99517.17;215602;1310;24442;-76
2021/11/11 04:09:56;;;;;;;23.00;13.90;;;;;;;4.10;76.83;99518.47;215567;1313;22590;-76
2021/11/11 04:15:04;;;;;;;27.70;15.40;;;;;;;4.07;77.19;99511.14;215981;1314;24286;-76
2021/11/11 04:20:26;;;;;;;23.80;15.70;;;;;;;4.05;77.22;99508.02;215674;1315;24353;-76
2021/11/11 04:30:55;;;;;;;26.20;16.10;;;;;;;3.95;77.39;99503.90;216000;1318;24305;-77
2021/11/11 04:36:15;;;;;;;27.20;16.40;;;;;;;3.87;77.48;99514.44;215875;1316;24398;-76
2021/11/11 04:41:38;;;;;;;25.00;15.90;;;;;;;3.81;77.63;99518.44;216072;1317;24254;-76
2021/11/11 04:47:04;;;;;;;26.60;15.90;;;;;;;3.79;77.71;99512.34;215691;1314;25546;-75
2021/11/11 05:08:14;;;;;;;25.20;16.00;;;;;;;3.48;77.09;99480.69;215368;1308;174079;-76
2021/11/11 05:13:18;;;;;;;27.60;17.10;;;;;;;3.38;77.64;99486.73;215306;1317;22668;-76
2021/11/11 05:18:22;;;;;;;26.50;17.20;;;;;;;3.35;77.81;99485.55;215273;1315;22575;-76
2021/11/11 05:23:25;;;;;;;27.40;17.10;;;;;;;3.35;78.03;99484.86;215849;1310;25468;-76
2021/11/11 05:28:28;;;;;;;30.30;18.00;;;;;;;3.34;78.31;99479.73;215433;1312;24744;-76
2021/11/11 05:33:33;;;;;;;26.80;16.40;;;;;;;3.30;78.17;99462.19;215730;1318;24286;-76
2021/11/11 05:38:37;;;;;;;35.70;20.20;;;;;;;3.17;77.64;99456.14;215850;1314;24273;-76
2021/11/11 05:43:53;;;;;;;34.60;20.20;;;;;;;3.04;77.86;99456.71;215636;1318;24285;-77
2021/11/11 05:49:19;;;;;;;31.70;18.50;;;;;;;2.93;77.78;99462.23;215678;1318;24441;-76
2021/11/11 05:54:22;;;;;;;33.60;19.50;;;;;;;2.85;78.24;99466.23;215271;1318;24262;-77
2021/11/11 05:59:26;;;;;;;35.40;20.60;;;;;;;2.87;78.70;99466.36;215979;1316;25577;-75
2021/11/11 06:04:30;;;;;;;32.90;18.50;;;;;;;2.87;78.70;99472.98;215896;1316;24318;-76
2021/11/11 06:09:38;;;;;;;32.10;18.50;;;;;;;2.89;78.87;99479.42;216097;1313;22654;-77
2021/11/11 06:14:54;;;;;;;32.90;17.70;;;;;;;2.93;79.13;99493.20;215828;1314;22657;-75
2021/11/11 06:20:00;;;;;;;33.60;18.50;;;;;;;3.01;79.16;99492.42;215807;1315;24282;-76
2021/11/11 06:25:05;;;;;;;33.20;19.50;;;;;;;3.02;78.90;99484.19;215644;1317;24254;-76
2021/11/11 06:30:09;;;;;;;40.20;25.50;;;;;;;3.03;79.12;99485.52;215918;1315;22573;-76
2021/11/11 06:35:11;;;;;;;33.20;20.10;;;;;;;3.10;79.35;99479.24;215704;1316;25271;-76
2021/11/11 06:40:14;;;;;;;30.10;18.90;;;;;;;3.19;79.27;99479.17;216337;1316;22969;-76
2021/11/11 06:45:18;;;;;;;31.20;16.60;;;;;;;3.31;79.32;99479.98;215978;1312;24346;-76
2021/11/11 06:50:25;;;;;;;29.30;17.40;;;;;;;3.45;79.55;99480.77;216048;1315;26001;-75
2021/11/11 06:55:27;;;;;;;29.30;17.80;;;;;;;3.64;79.60;99474.32;215871;1316;24201;-76
2021/11/11 07:00:30;;;;;;;28.60;17.10;;;;;;;3.81;79.63;99467.88;216202;1310;24505;-76
2021/11/11 07:05:34;;;;;;;23.10;13.60;;;;;;;3.99;79.75;99467.45;215947;1316;25398;-76
2021/11/11 07:10:49;;;;;;;20.10;12.60;;;;;;;4.14;79.65;99472.85;216081;1312;25388;-74
2021/11/11 07:15:54;;;;;;;17.10;11.10;;;;;;;4.36;79.62;99469.07;215983;1310;25416;-76
2021/11/11 07:20:57;;;;;;;16.20;10.90;;;;;;;4.56;79.62;99467.23;216072;1315;24283;-75
2021/11/11 07:26:04;;;;;;;17.10;10.50;;;;;;;4.79;79.70;99473.32;215644;1310;22664;-75
2021/11/11 07:31:23;;;;;;;15.40;9.80;;;;;;;5.05;79.59;99473.69;215614;1310;22949;-76
2021/11/11 07:36:46;;;;;;;15.00;8.90;;;;;;;5.32;79.33;99468.95;216015;1316;23099;-76
2021/11/11 07:41:49;;;;;;;15.00;9.60;;;;;;;5.52;79.18;99470.77;216076;1314;24241;-76
2021/11/11 07:46:55;;;;;;;14.50;9.70;;;;;;;5.75;79.01;99474.10;215637;1313;22602;-76
2021/11/11 07:51:58;;;;;;;13.00;9.00;;;;;;;5.97;78.63;99469.33;215964;1311;24250;-76
2021/11/11 07:57:01;;;;;;;13.90;9.10;;;;;;;6.16;78.15;99458.00;215602;1315;22720;-77
2021/11/11 08:02:04;;;;;;;11.60;8.30;;;;;;;6.32;77.76;99450.20;215808;1316;24291;-76
2021/11/11 08:07:06;;;;;;;13.40;8.60;;;;;;;6.48;77.56;99445.65;215721;1317;23535;-76
2021/11/11 08:12:10;;;;;;;14.00;9.20;;;;;;;6.65;77.03;99442.96;215777;1310;24393;-76
2021/11/11 08:17:17;;;;;;;13.70;8.90;;;;;;;6.80;76.69;99434.37;216043;1315;23402;-76
2021/11/11 08:22:25;;;;;;;13.10;8.80;;;;;;;6.96;75.70;99431.27;216318;1316;25466;-76
2021/11/11 08:27:32;;;;;;;12.00;7.70;;;;;;;7.09;75.86;99430.82;215672;1310;22645;-76
2021/11/11 08:32:35;;;;;;;12.20;8.90;;;;;;;7.26;75.21;99437.45;215806;1317;22527;-77
2021/11/11 08:37:42;;;;;;;12.90;7.90;;;;;;;7.41;74.90;99436.02;215707;1310;24278;-76
2021/11/11 08:42:51;;;;;;;11.10;7.40;;;;;;;7.57;74.67;99440.39;215864;1315;23166;-76
2021/11/11 08:47:55;;;;;;;10.60;7.90;;;;;;;7.76;74.18;99436.63;215873;1310;22811;-76
2021/11/11 08:53:01;;;;;;;10.90;7.90;;;;;;;7.93;73.55;99426.40;215816;1313;25527;-76
2021/11/11 08:58:06;;;;;;;11.00;7.50;;;;;;;8.06;72.54;99414.34;215915;1313;25078;-76
2021/11/11 09:03:12;;;;;;;10.10;7.20;;;;;;;8.22;72.54;99419.52;215857;1309;24253;-77
2021/11/11 09:08:14;;;;;;;8.00;6.10;;;;;;;8.41;72.33;99421.15;215793;1310;22564;-77
2021/11/11 09:13:17;;;;;;;9.20;6.60;;;;;;;8.58;71.08;99419.48;216009;1315;22585;-76
2021/11/11 09:18:21;;;;;;;7.10;5.60;;;;;;;8.74;70.13;99410.02;215706;1314;24270;-76
2021/11/11 09:23:37;;;;;;;7.20;5.90;;;;;;;8.87;68.87;99423.90;216128;1315;22621;-77
2021/11/11 09:28:41;;;;;;;6.90;5.70;;;;;;;8.98;68.80;99419.84;215703;1313;25277;-76
2021/11/11 09:33:45;;;;;;;7.10;5.50;;;;;;;9.13;68.12;99414.75;215650;1314;23671;-76
2021/11/11 09:38:58;;;;;;;6.80;5.60;;;;;;;9.26;68.55;99407.84;215564;1310;22581;-76
2021/11/11 09:44:11;;;;;;;6.90;5.60;;;;;;;9.43;68.38;99400.19;215664;1315;25663;-75
2021/11/11 09:49:14;;;;;;;7.20;5.50;;;;;;;9.59;67.33;99398.86;215667;1315;24318;-76
2021/11/11 09:58:34;;;;;;;8.10;5.60;;;;;;;9.67;66.98;99404.85;215716;1314;24310;-76
2021/11/11 09:59:42;;;;;;;8.50;5.60;;;;;;;9.79;66.73;99404.81;216167;1314;24263;-76
2021/11/11 10:04:45;;;;;;;7.00;5.10;;;;;;;9.92;66.72;99404.16;216107;1315;25476;-78
2021/11/11 10:09:47;;;;;;;7.00;4.80;;;;;;;10.04;66.85;99398.60;215905;1315;23507;-77
2021/11/11 10:14:52;;;;;;;6.60;5.40;;;;;;;10.14;65.20;99390.82;215974;1315;24400;-77
2021/11/11 10:19:58;;;;;;;7.30;5.10;;;;;;;10.19;64.29;99390.86;215190;1316;24413;-77
2021/11/11 10:25:10;;;;;;;7.50;4.90;;;;;;;10.28;65.23;99394.86;215557;1310;22639;-77
2021/11/11 10:30:18;;;;;;;6.40;4.70;;;;;;;10.44;65.72;99399.30;215413;1314;22577;-76
2021/11/11 10:35:27;;;;;;;5.80;4.80;;;;;;;10.66;65.06;99393.41;215528;1315;24337;-77
2021/11/11 10:40:40;;;;;;;6.10;4.70;;;;;;;10.78;63.29;99392.97;215896;1310;24273;-77
2021/11/11 10:45:47;;;;;;;18.60;4.70;;;;;;;10.80;62.76;99392.70;215685;1314;24253;-76
2021/11/11 10:50:55;;;;;;;6.00;5.40;;;;;;;10.87;61.86;99386.95;215807;1316;22562;-77
2021/11/11 10:56:01;;;;;;;5.60;4.50;;;;;;;10.91;62.90;99381.18;215567;1315;22611;-77
2021/11/11 11:01:10;;;;;;;6.60;4.90;;;;;;;11.00;63.26;99380.66;215967;1316;22663;-77
2021/11/11 11:06:16;;;;;;;5.10;4.60;;;;;;;11.05;62.51;99375.87;215668;1313;23998;-77
2021/11/11 11:11:20;;;;;;;5.70;4.40;;;;;;;11.08;60.31;99370.01;216037;1310;22683;-76
2021/11/11 11:16:39;;;;;;;5.50;4.60;;;;;;;11.08;60.34;99379.44;215586;1311;24224;-77
2021/11/11 11:21:57;;;;;;;6.20;5.40;;;;;;;11.15;60.52;99384.34;215977;1314;22610;-76
2021/11/11 11:27:05;;;;;;;5.10;4.60;;;;;;;11.21;60.76;99383.82;215930;1311;24256;-77
2021/11/11 11:32:30;;;;;;;5.40;4.80;;;;;;;11.31;61.26;99376.08;216061;1316;22614;-76
2021/11/11 11:37:35;;;;;;;5.70;4.60;;;;;;;11.41;60.52;99377.95;215652;1314;24199;-77
2021/11/11 11:42:42;;;;;;;5.60;4.90;;;;;;;11.47;59.90;99374.58;216030;1315;22655;-77
2021/11/11 11:47:58;;;;;;;6.20;5.10;;;;;;;11.53;60.98;99380.72;215699;1316;25477;-77
2021/11/11 11:53:18;;;;;;;6.30;5.10;;;;;;;11.59;61.13;99375.61;215596;1310;22711;-77
2021/11/11 11:58:29;;;;;;;7.60;5.70;;;;;;;11.59;59.67;99375.89;215972;1310;25479;-77
2021/11/11 12:09:34;;;;;;;8.30;6.30;;;;;;;11.48;60.74;99369.91;215503;1310;22772;-77
2021/11/11 12:42:02;;;;;;;11.90;7.40;;;;;;;11.08;61.15;99375.04;215940;1314;25728;-77
2021/11/11 12:47:05;;;;;;;8.40;7.40;;;;;;;10.90;61.10;99366.02;215967;1316;22618;-78
2021/11/11 12:52:14;;;;;;;9.60;8.10;;;;;;;10.79;61.71;99371.91;215661;1316;22969;-77
2021/11/11 12:57:18;;;;;;;11.10;8.90;;;;;;;10.69;61.83;99377.63;215894;1315;22595;-76
2021/11/11 13:02:21;;;;;;;10.30;8.20;;;;;;;10.63;61.95;99377.33;216064;1316;24301;-76
2021/11/11 13:07:28;;;;;;;10.30;8.40;;;;;;;10.58;62.11;99374.79;215910;1314;201346;-76
2021/11/11 13:12:31;;;;;;;10.30;8.50;;;;;;;10.56;62.51;99378.86;216062;1310;24263;-76
2021/11/11 13:17:59;;;;;;;12.60;10.40;;;;;;;10.56;62.61;99378.53;216034;1314;24311;-76
2021/11/11 13:23:26;;;;;;;12.30;10.80;;;;;;;10.49;62.77;99374.06;215816;1316;24287;-77
2021/11/11 13:43:35;;;;;;;12.90;10.90;;;;;;;10.43;63.35;99375.79;215623;1312;22929;-76
2021/11/11 16:01:18;;;;;;;25.80;17.90;;;;;;;6.30;71.18;99419.90;215753;1316;24269;-76
2021/11/11 16:27:37;;;;;;;34.10;21.00;;;;;;;5.59;72.87;99431.06;215890;1310;24266;-77
2021/11/11 16:32:47;;;;;;;30.90;19.10;;;;;;;5.49;73.19;99432.06;216066;1316;24282;-78
2021/11/11 16:37:51;;;;;;;29.00;19.20;;;;;;;5.42;73.41;99440.77;215748;1316;22738;-77
2021/11/11 16:42:54;;;;;;;32.20;20.30;;;;;;;5.35;73.59;99443.98;216055;1317;22700;-76
2021/11/11 16:47:58;;;;;;;33.90;20.50;;;;;;;5.24;74.10;99441.14;215979;1316;22733;-76
2021/11/11 16:53:05;;;;;;;30.00;18.70;;;;;;;5.15;74.18;99428.39;215409;1316;24282;-77
2021/11/11 16:58:10;;;;;;;31.30;19.30;;;;;;;5.10;74.21;99421.85;215206;1319;24582;-77
2021/11/11 17:03:14;;;;;;;34.20;20.20;;;;;;;5.03;74.87;99417.98;215217;1319;22811;-76
2021/11/11 17:08:18;;;;;;;30.80;18.90;;;;;;;4.94;75.66;99413.08;215685;1319;24368;-77
2021/11/11 17:13:22;;;;;;;29.10;18.20;;;;;;;4.87;76.22;99415.92;215502;1319;24324;-77
2021/11/11 17:18:28;;;;;;;32.00;20.50;;;;;;;4.83;76.47;99413.02;215480;1319;25473;-76
2021/11/11 17:23:44;;;;;;;30.80;19.10;;;;;;;4.79;76.88;99413.48;215631;1317;24212;-77
2021/11/11 17:28:49;;;;;;;28.80;17.60;;;;;;;4.71;76.34;99417.73;215476;1316;24552;-77
2021/11/11 17:33:52;;;;;;;31.50;18.90;;;;;;;4.66;76.39;99419.84;215571;1318;24407;-77
2021/11/11 17:38:56;;;;;;;30.40;18.50;;;;;;;4.60;76.58;99423.12;215544;1318;24707;-77
2021/11/11 17:44:04;;;;;;;30.90;18.30;;;;;;;4.54;76.67;99429.95;215493;1316;26605;-77
2021/11/11 17:49:18;;;;;;;32.00;18.40;;;;;;;4.51;76.79;99432.43;215392;1317;22562;-76
2021/11/11 17:54:42;;;;;;;30.20;18.00;;;;;;;4.45;76.85;99429.91;215142;1316;25546;-77
2021/11/11 17:59:46;;;;;;;31.70;19.50;;;;;;;4.41;76.88;99433.49;215339;1319;24231;-77
2021/11/11 18:04:51;;;;;;;36.10;21.00;;;;;;;4.37;77.10;99430.67;215267;1318;25951;-78
2021/11/11 18:10:00;;;;;;;35.30;20.90;;;;;;;4.28;77.28;99428.84;215429;1319;24259;-76
2021/11/11 18:15:11;;;;;;;35.40;22.30;;;;;;;4.18;77.39;99424.11;215432;1315;24388;-76
2021/11/11 18:20:14;;;;;;;33.80;20.80;;;;;;;4.10;77.53;99425.19;215377;1316;22546;-76
2021/11/11 18:25:17;;;;;;;34.00;20.30;;;;;;;4.03;77.74;99427.41;215222;1319;25396;-77
2021/11/11 18:30:29;;;;;;;38.70;21.10;;;;;;;3.98;77.99;99427.98;215493;1319;24286;-77
2021/11/11 18:35:50;;;;;;;31.80;18.80;;;;;;;3.95;78.07;99423.79;215414;1319;22741;-76
2021/11/11 18:40:59;;;;;;;36.80;21.20;;;;;;;3.92;78.15;99429.43;215341;1316;26188;-76
2021/11/11 18:46:09;;;;;;;34.30;20.60;;;;;;;3.89;78.20;99428.69;215509;1316;22790;-77
2021/11/11 18:51:25;;;;;;;33.00;19.40;;;;;;;3.88;78.35;99430.66;215516;1315;22583;-77
2021/11/11 18:56:31;;;;;;;33.50;20.20;;;;;;;3.84;78.30;99428.66;216107;1319;22540;-77
2021/11/11 19:01:35;;;;;;;37.20;23.20;;;;;;;3.80;78.44;99432.58;215782;1318;22602;-77
2021/11/11 19:06:47;;;;;;;39.90;23.90;;;;;;;3.79;78.77;99436.38;216067;1317;24257;-78
2021/11/11 19:11:55;;;;;;;35.40;19.30;;;;;;;3.78;78.78;99427.67;216013;1317;22604;-76
2021/11/11 19:17:06;;;;;;;37.60;21.50;;;;;;;3.70;78.52;99427.46;215137;1319;24224;-77
2021/11/11 19:22:09;;;;;;;33.40;20.40;;;;;;;3.63;78.67;99418.44;215481;1318;25433;-77
2021/11/11 19:27:13;;;;;;;41.50;22.00;;;;;;;3.57;78.91;99411.52;215850;1317;24404;-76
2021/11/11 19:32:18;;;;;;;34.10;19.70;;;;;;;3.50;79.13;99409.38;215719;1319;25524;-76
2021/11/11 20:41:45;;;;;;;42.60;23.30;;;;;;;3.39;80.32;99433.63;215610;1318;25506;-76
2021/11/11 20:52:02;;;;;;;36.70;20.60;;;;;;;3.35;80.38;99427.52;215637;1320;24230;-77
2021/11/11 21:07:37;;;;;;;38.50;20.90;;;;;;;3.17;80.35;99432.36;215899;1312;215829;-77
2021/11/11 21:23:10;;;;;;;40.90;22.10;;;;;;;3.20;80.62;99439.92;215440;1318;22674;-76
2021/11/11 21:28:13;;;;;;;40.30;23.00;;;;;;;3.17;80.66;99446.13;215974;1314;23037;-77
2021/11/11 21:33:19;;;;;;;37.70;21.50;;;;;;;3.15;80.53;99440.33;215459;1318;22580;-76
2021/11/11 21:38:35;;;;;;;36.70;20.20;;;;;;;3.09;80.87;99435.88;215804;1316;22621;-76
2021/11/11 21:43:40;;;;;;;38.10;21.50;;;;;;;3.07;81.37;99436.15;216063;1310;24268;-76
2021/11/11 21:48:49;;;;;;;38.40;21.00;;;;;;;3.07;81.64;99437.34;215400;1313;25670;-77
2021/11/11 21:53:53;;;;;;;36.20;20.20;;;;;;;3.07;81.56;99447.59;215417;1319;23741;-77
2021/11/11 22:04:47;;;;;;;45.20;22.10;;;;;;;2.99;81.60;99443.49;215673;1318;22732;-76
2021/11/11 22:36:50;;;;;;;38.60;21.20;;;;;;;2.96;82.10;99432.29;215445;1319;24302;-77
2021/11/11 22:41:53;;;;;;;34.70;18.30;;;;;;;2.97;82.11;99434.61;215777;1313;25531;-76
2021/11/11 22:47:00;;;;;;;33.90;17.20;;;;;;;2.97;82.22;99434.81;215460;1312;24903;-76
2021/11/11 22:52:07;;;;;;;33.40;17.70;;;;;;;2.95;82.28;99432.00;215404;1319;24526;-78
2021/11/11 23:02:56;;;;;;;37.40;18.50;;;;;;;3.01;82.40;99429.11;214854;1318;24254;-77
2021/11/11 23:13:29;;;;;;;30.50;16.60;;;;;;;3.03;82.33;99431.55;215310;1319;24235;-76
2021/11/11 23:19:40;;;;;;;32.80;18.00;;;;;;;2.95;82.00;99422.48;215396;1318;24305;-75
2021/11/11 23:35:09;;;;;;;42.10;20.40;;;;;;;2.65;82.20;99426.85;215871;1318;22680;-77
2021/11/11 23:40:14;;;;;;;37.20;19.30;;;;;;;2.65;82.48;99427.98;215995;1317;22708;-75
2021/11/11 23:45:30;;;;;;;35.60;18.10;;;;;;;2.68;82.59;99430.30;215417;1313;24247;-76
